sensor_id;sensor_type;location;lat;lon;timestamp;P1;durP1;ratioP1;P2;durP2;ratioP2
53939;SDS011;39850;43.324;21.916;2023-04-25T00:23:22;7.0;;;5.0;;
53939;SDS011;39850;43.324;21.916;2023-04-25T00:27:59;7.0;;;5.0;;
53939;SDS011;39850;43.324;21.916;2023-04-25T00:32:36;7.0;;;5.0;;
53939;SDS011;39850;43.324;21.916;2023-04-25T00:37:13;7.0;;;5.0;;
53939;SDS011;39850;43.324;21.916;2023-04-25T00:41:54;7.0;;;5.0;;
53939;SDS011;39850;43.324;21.916;2023-04-25T00:46:33;7.0;;;5.0;;
53939;SDS011;39850;43.324;21.916;2023-04-25T00:51:22;7.0;;;5.0;;
53939;SDS011;39850;43.324;21.916;2023-04-25T00:56:03;7.0;;;5.0;;
53939;SDS011;39850;43.324;21.916;2023-04-25T01:00:45;7.0;;;5.0;;
53939;SDS011;39850;43.324;21.916;2023-04-25T01:05:25;7.0;;;5.0;;
53939;SDS011;39850;43.324;21.916;2023-04-25T01:10:06;7.0;;;5.0;;
53939;SDS011;39850;43.324;21.916;2023-04-25T01:42:44;7.0;;;5.0;;
53939;SDS011;39850;43.324;21.916;2023-04-25T01:47:21;7.0;;;5.0;;
53939;SDS011;39850;43.324;21.916;2023-04-25T01:51:58;7.0;;;5.0;;
53939;SDS011;39850;43.324;21.916;2023-04-25T01:56:39;7.0;;;5.0;;
53939;SDS011;39850;43.324;21.916;2023-04-25T02:01:16;7.0;;;5.0;;
53939;SDS011;39850;43.324;21.916;2023-04-25T02:05:53;7.0;;;5.0;;
53939;SDS011;39850;43.324;21.916;2023-04-25T02:10:30;7.0;;;5.0;;
53939;SDS011;39850;43.324;21.916;2023-04-25T02:15:09;7.0;;;5.0;;
53939;SDS011;39850;43.324;21.916;2023-04-25T02:19:46;7.0;;;5.0;;
53939;SDS011;39850;43.324;21.916;2023-04-25T02:24:24;7.0;;;5.0;;
53939;SDS011;39850;43.324;21.916;2023-04-25T02:29:00;7.0;;;5.0;;
53939;SDS011;39850;43.324;21.916;2023-04-25T03:05:54;8.0;;;6.0;;
53939;SDS011;39850;43.324;21.916;2023-04-25T03:10:30;8.0;;;6.0;;
53939;SDS011;39850;43.324;21.916;2023-04-25T03:15:09;8.0;;;6.0;;
53939;SDS011;39850;43.324;21.916;2023-04-25T03:19:46;8.0;;;6.0;;
53939;SDS011;39850;43.324;21.916;2023-04-25T03:24:24;8.0;;;6.0;;
53939;SDS011;39850;43.324;21.916;2023-04-25T03:29:01;8.0;;;6.0;;
53939;SDS011;39850;43.324;21.916;2023-04-25T03:33:39;8.0;;;6.0;;
53939;SDS011;39850;43.324;21.916;2023-04-25T03:38:17;8.0;;;6.0;;
53939;SDS011;39850;43.324;21.916;2023-04-25T03:42:54;8.0;;;6.0;;
53939;SDS011;39850;43.324;21.916;2023-04-25T03:47:31;8.0;;;6.0;;
53939;SDS011;39850;43.324;21.916;2023-04-25T03:52:08;8.0;;;6.0;;
53939;SDS011;39850;43.324;21.916;2023-04-25T04:24:25;8.0;;;6.0;;
53939;SDS011;39850;43.324;21.916;2023-04-25T04:29:01;8.0;;;6.0;;
53939;SDS011;39850;43.324;21.916;2023-04-25T04:33:38;8.0;;;6.0;;
53939;SDS011;39850;43.324;21.916;2023-04-25T04:38:14;8.0;;;6.0;;
53939;SDS011;39850;43.324;21.916;2023-04-25T04:42:51;8.0;;;6.0;;
53939;SDS011;39850;43.324;21.916;2023-04-25T04:47:28;8.0;;;6.0;;
53939;SDS011;39850;43.324;21.916;2023-04-25T04:52:04;8.0;;;6.0;;
53939;SDS011;39850;43.324;21.916;2023-04-25T04:56:41;9.0;;;6.0;;
53939;SDS011;39850;43.324;21.916;2023-04-25T05:01:18;9.0;;;6.0;;
53939;SDS011;39850;43.324;21.916;2023-04-25T05:05:55;10.0;;;7.0;;
53939;SDS011;39850;43.324;21.916;2023-04-25T05:10:32;10.0;;;7.0;;
53939;SDS011;39850;43.324;21.916;2023-04-25T05:47:28;14.0;;;10.0;;
53939;SDS011;39850;43.324;21.916;2023-04-25T05:52:05;14.0;;;10.0;;
53939;SDS011;39850;43.324;21.916;2023-04-25T05:56:42;12.0;;;10.0;;
53939;SDS011;39850;43.324;21.916;2023-04-25T06:01:19;12.0;;;10.0;;
53939;SDS011;39850;43.324;21.916;2023-04-25T06:05:58;12.0;;;9.0;;
53939;SDS011;39850;43.324;21.916;2023-04-25T06:10:36;12.0;;;9.0;;
53939;SDS011;39850;43.324;21.916;2023-04-25T06:15:14;12.0;;;9.0;;
53939;SDS011;39850;43.324;21.916;2023-04-25T06:19:51;12.0;;;9.0;;
53939;SDS011;39850;43.324;21.916;2023-04-25T06:24:29;12.0;;;9.0;;
53939;SDS011;39850;43.324;21.916;2023-04-25T06:29:05;12.0;;;9.0;;
53939;SDS011;39850;43.324;21.916;2023-04-25T07:05:59;11.0;;;9.0;;
53939;SDS011;39850;43.324;21.916;2023-04-25T07:10:36;11.0;;;9.0;;
53939;SDS011;39850;43.324;21.916;2023-04-25T07:15:12;12.0;;;9.0;;
53939;SDS011;39850;43.324;21.916;2023-04-25T07:19:49;12.0;;;9.0;;
53939;SDS011;39850;43.324;21.916;2023-04-25T07:24:25;12.0;;;9.0;;
53939;SDS011;39850;43.324;21.916;2023-04-25T07:29:02;12.0;;;9.0;;
53939;SDS011;39850;43.324;21.916;2023-04-25T07:33:38;12.0;;;9.0;;
53939;SDS011;39850;43.324;21.916;2023-04-25T07:38:15;12.0;;;9.0;;
53939;SDS011;39850;43.324;21.916;2023-04-25T07:42:52;12.0;;;9.0;;
53939;SDS011;39850;43.324;21.916;2023-04-25T08:24:25;7.0;;;6.0;;
53939;SDS011;39850;43.324;21.916;2023-04-25T08:29:02;7.0;;;6.0;;
53939;SDS011;39850;43.324;21.916;2023-04-25T08:33:39;8.0;;;6.0;;
53939;SDS011;39850;43.324;21.916;2023-04-25T08:38:16;8.0;;;6.0;;
53939;SDS011;39850;43.324;21.916;2023-04-25T08:43:01;8.0;;;6.0;;
53939;SDS011;39850;43.324;21.916;2023-04-25T08:47:41;8.0;;;6.0;;
53939;SDS011;39850;43.324;21.916;2023-04-25T08:52:41;8.0;;;6.0;;
53939;SDS011;39850;43.324;21.916;2023-04-25T08:57:25;8.0;;;6.0;;
53939;SDS011;39850;43.324;21.916;2023-04-25T09:02:04;8.0;;;6.0;;
53939;SDS011;39850;43.324;21.916;2023-04-25T09:06:42;9.0;;;6.0;;
53939;SDS011;39850;43.324;21.916;2023-04-25T09:11:19;9.0;;;6.0;;
53939;SDS011;39850;43.324;21.916;2023-04-25T09:43:59;9.0;;;6.0;;
53939;SDS011;39850;43.324;21.916;2023-04-25T09:48:35;9.0;;;6.0;;
53939;SDS011;39850;43.324;21.916;2023-04-25T09:53:12;9.0;;;6.0;;
53939;SDS011;39850;43.324;21.916;2023-04-25T09:58:05;9.0;;;6.0;;
53939;SDS011;39850;43.324;21.916;2023-04-25T10:02:50;9.0;;;6.0;;
53939;SDS011;39850;43.324;21.916;2023-04-25T10:07:36;9.0;;;6.0;;
53939;SDS011;39850;43.324;21.916;2023-04-25T10:12:16;9.0;;;6.0;;
53939;SDS011;39850;43.324;21.916;2023-04-25T10:16:58;10.0;;;7.0;;
53939;SDS011;39850;43.324;21.916;2023-04-25T10:21:55;10.0;;;7.0;;
53939;SDS011;39850;43.324;21.916;2023-04-25T10:26:41;10.0;;;8.0;;
53939;SDS011;39850;43.324;21.916;2023-04-25T10:31:18;10.0;;;8.0;;
53939;SDS011;39850;43.324;21.916;2023-04-25T11:04:34;9.0;;;8.0;;
53939;SDS011;39850;43.324;21.916;2023-04-25T11:09:13;9.0;;;8.0;;
53939;SDS011;39850;43.324;21.916;2023-04-25T11:13:50;9.0;;;8.0;;
53939;SDS011;39850;43.324;21.916;2023-04-25T11:18:28;10.0;;;8.0;;
53939;SDS011;39850;43.324;21.916;2023-04-25T11:23:05;10.0;;;8.0;;
53939;SDS011;39850;43.324;21.916;2023-04-25T11:27:55;10.0;;;9.0;;
53939;SDS011;39850;43.324;21.916;2023-04-25T11:32:35;10.0;;;9.0;;
53939;SDS011;39850;43.324;21.916;2023-04-25T11:37:14;10.0;;;10.0;;
53939;SDS011;39850;43.324;21.916;2023-04-25T11:41:54;10.0;;;10.0;;
53939;SDS011;39850;43.324;21.916;2023-04-25T11:46:34;10.0;;;10.0;;
53939;SDS011;39850;43.324;21.916;2023-04-25T11:51:12;10.0;;;10.0;;
53939;SDS011;39850;43.324;21.916;2023-04-25T12:28:33;10.0;;;10.0;;
53939;SDS011;39850;43.324;21.916;2023-04-25T12:33:09;10.0;;;10.0;;
53939;SDS011;39850;43.324;21.916;2023-04-25T12:37:46;10.0;;;10.0;;
53939;SDS011;39850;43.324;21.916;2023-04-25T12:42:22;10.0;;;10.0;;
53939;SDS011;39850;43.324;21.916;2023-04-25T12:46:59;10.0;;;9.0;;
53939;SDS011;39850;43.324;21.916;2023-04-25T12:51:37;10.0;;;9.0;;
53939;SDS011;39850;43.324;21.916;2023-04-25T12:56:14;10.0;;;9.0;;
53939;SDS011;39850;43.324;21.916;2023-04-25T13:00:50;10.0;;;9.0;;
53939;SDS011;39850;43.324;21.916;2023-04-25T13:05:27;10.0;;;9.0;;
53939;SDS011;39850;43.324;21.916;2023-04-25T13:10:08;10.0;;;9.0;;
53939;SDS011;39850;43.324;21.916;2023-04-25T13:47:02;9.0;;;8.0;;
53939;SDS011;39850;43.324;21.916;2023-04-25T13:51:39;9.0;;;8.0;;
53939;SDS011;39850;43.324;21.916;2023-04-25T13:56:18;10.0;;;8.0;;
53939;SDS011;39850;43.324;21.916;2023-04-25T14:00:55;10.0;;;8.0;;
53939;SDS011;39850;43.324;21.916;2023-04-25T14:05:31;9.0;;;8.0;;
53939;SDS011;39850;43.324;21.916;2023-04-25T14:10:10;9.0;;;8.0;;
53939;SDS011;39850;43.324;21.916;2023-04-25T14:14:47;10.0;;;8.0;;
53939;SDS011;39850;43.324;21.916;2023-04-25T14:19:25;10.0;;;8.0;;
53939;SDS011;39850;43.324;21.916;2023-04-25T14:24:03;10.0;;;8.0;;
53939;SDS011;39850;43.324;21.916;2023-04-25T14:28:41;9.0;;;8.0;;
53939;SDS011;39850;43.324;21.916;2023-04-25T14:33:17;9.0;;;8.0;;
53939;SDS011;39850;43.324;21.916;2023-04-25T15:05:37;12.0;;;11.0;;
53939;SDS011;39850;43.324;21.916;2023-04-25T15:10:13;12.0;;;11.0;;
53939;SDS011;39850;43.324;21.916;2023-04-25T15:14:51;12.0;;;11.0;;
53939;SDS011;39850;43.324;21.916;2023-04-25T15:19:27;12.0;;;11.0;;
53939;SDS011;39850;43.324;21.916;2023-04-25T15:24:06;12.0;;;11.0;;
53939;SDS011;39850;43.324;21.916;2023-04-25T15:28:43;12.0;;;11.0;;
53939;SDS011;39850;43.324;21.916;2023-04-25T15:33:19;12.0;;;11.0;;
53939;SDS011;39850;43.324;21.916;2023-04-25T15:37:56;12.0;;;11.0;;
53939;SDS011;39850;43.324;21.916;2023-04-25T15:42:33;12.0;;;11.0;;
53939;SDS011;39850;43.324;21.916;2023-04-25T15:47:09;11.0;;;11.0;;
53939;SDS011;39850;43.324;21.916;2023-04-25T15:51:46;11.0;;;11.0;;
53939;SDS011;39850;43.324;21.916;2023-04-25T16:28:46;12.0;;;12.0;;
53939;SDS011;39850;43.324;21.916;2023-04-25T16:33:23;12.0;;;12.0;;
53939;SDS011;39850;43.324;21.916;2023-04-25T16:38:00;12.0;;;12.0;;
53939;SDS011;39850;43.324;21.916;2023-04-25T16:42:37;12.0;;;12.0;;
53939;SDS011;39850;43.324;21.916;2023-04-25T16:47:15;12.0;;;12.0;;
53939;SDS011;39850;43.324;21.916;2023-04-25T16:51:52;12.0;;;12.0;;
53939;SDS011;39850;43.324;21.916;2023-04-25T16:56:29;12.0;;;12.0;;
53939;SDS011;39850;43.324;21.916;2023-04-25T17:01:06;12.0;;;12.0;;
53939;SDS011;39850;43.324;21.916;2023-04-25T17:05:43;13.0;;;13.0;;
53939;SDS011;39850;43.324;21.916;2023-04-25T17:10:20;13.0;;;13.0;;
53939;SDS011;39850;43.324;21.916;2023-04-25T17:14:57;13.0;;;13.0;;
53939;SDS011;39850;43.324;21.916;2023-04-25T17:56:30;24.0;;;25.0;;
53939;SDS011;39850;43.324;21.916;2023-04-25T18:01:06;24.0;;;25.0;;
53939;SDS011;39850;43.324;21.916;2023-04-25T18:05:43;24.0;;;25.0;;
53939;SDS011;39850;43.324;21.916;2023-04-25T18:10:20;24.0;;;25.0;;
53939;SDS011;39850;43.324;21.916;2023-04-25T18:14:57;24.0;;;25.0;;
53939;SDS011;39850;43.324;21.916;2023-04-25T18:19:33;24.0;;;25.0;;
53939;SDS011;39850;43.324;21.916;2023-04-25T18:24:11;24.0;;;25.0;;
53939;SDS011;39850;43.324;21.916;2023-04-25T18:28:48;24.0;;;25.0;;
53939;SDS011;39850;43.324;21.916;2023-04-25T18:33:24;24.0;;;25.0;;
53939;SDS011;39850;43.324;21.916;2023-04-25T19:05:42;22.0;;;22.0;;
53939;SDS011;39850;43.324;21.916;2023-04-25T19:10:19;22.0;;;22.0;;
53939;SDS011;39850;43.324;21.916;2023-04-25T19:14:55;22.0;;;22.0;;
53939;SDS011;39850;43.324;21.916;2023-04-25T19:19:32;24.0;;;22.0;;
53939;SDS011;39850;43.324;21.916;2023-04-25T19:24:10;24.0;;;22.0;;
53939;SDS011;39850;43.324;21.916;2023-04-25T19:29:03;22.0;;;22.0;;
53939;SDS011;39850;43.324;21.916;2023-04-25T19:33:44;22.0;;;22.0;;
53939;SDS011;39850;43.324;21.916;2023-04-25T19:38:22;22.0;;;21.0;;
53939;SDS011;39850;43.324;21.916;2023-04-25T19:42:59;22.0;;;21.0;;
53939;SDS011;39850;43.324;21.916;2023-04-25T19:47:36;19.0;;;19.0;;
53939;SDS011;39850;43.324;21.916;2023-04-25T19:52:13;19.0;;;19.0;;
53939;SDS011;39850;43.324;21.916;2023-04-25T20:29:07;32.0;;;33.0;;
53939;SDS011;39850;43.324;21.916;2023-04-25T20:33:45;32.0;;;33.0;;
53939;SDS011;39850;43.324;21.916;2023-04-25T20:38:22;32.0;;;32.0;;
53939;SDS011;39850;43.324;21.916;2023-04-25T20:42:59;32.0;;;32.0;;
53939;SDS011;39850;43.324;21.916;2023-04-25T20:47:35;33.0;;;33.0;;
53939;SDS011;39850;43.324;21.916;2023-04-25T20:52:12;33.0;;;33.0;;
53939;SDS011;39850;43.324;21.916;2023-04-25T20:56:48;35.0;;;34.0;;
53939;SDS011;39850;43.324;21.916;2023-04-25T21:01:26;35.0;;;34.0;;
53939;SDS011;39850;43.324;21.916;2023-04-25T21:06:04;37.0;;;35.0;;
53939;SDS011;39850;43.324;21.916;2023-04-25T21:10:40;37.0;;;35.0;;
53939;SDS011;39850;43.324;21.916;2023-04-25T21:15:18;37.0;;;35.0;;
53939;SDS011;39850;43.324;21.916;2023-04-25T21:47:35;25.0;;;24.0;;
53939;SDS011;39850;43.324;21.916;2023-04-25T21:52:12;25.0;;;24.0;;
53939;SDS011;39850;43.324;21.916;2023-04-25T21:56:49;24.0;;;24.0;;
53939;SDS011;39850;43.324;21.916;2023-04-25T22:01:26;24.0;;;24.0;;
53939;SDS011;39850;43.324;21.916;2023-04-25T22:06:04;24.0;;;24.0;;
53939;SDS011;39850;43.324;21.916;2023-04-25T22:10:42;23.0;;;24.0;;
53939;SDS011;39850;43.324;21.916;2023-04-25T22:15:21;23.0;;;24.0;;
53939;SDS011;39850;43.324;21.916;2023-04-25T22:19:59;23.0;;;22.0;;
53939;SDS011;39850;43.324;21.916;2023-04-25T22:24:37;23.0;;;22.0;;
53939;SDS011;39850;43.324;21.916;2023-04-25T22:29:14;23.0;;;21.0;;
53939;SDS011;39850;43.324;21.916;2023-04-25T22:33:51;23.0;;;21.0;;
53939;SDS011;39850;43.324;21.916;2023-04-25T23:10:43;16.0;;;16.0;;
53939;SDS011;39850;43.324;21.916;2023-04-25T23:15:20;16.0;;;16.0;;
53939;SDS011;39850;43.324;21.916;2023-04-25T23:19:57;16.0;;;17.0;;
53939;SDS011;39850;43.324;21.916;2023-04-25T23:24:36;16.0;;;17.0;;
53939;SDS011;39850;43.324;21.916;2023-04-25T23:29:12;17.0;;;18.0;;
53939;SDS011;39850;43.324;21.916;2023-04-25T23:33:49;17.0;;;18.0;;
53939;SDS011;39850;43.324;21.916;2023-04-25T23:38:26;18.0;;;18.0;;
53939;SDS011;39850;43.324;21.916;2023-04-25T23:43:03;18.0;;;18.0;;
53939;SDS011;39850;43.324;21.916;2023-04-25T23:47:39;19.0;;;19.0;;
53939;SDS011;39850;43.324;21.916;2023-04-25T23:52:16;19.0;;;19.0;;
